createdAt,value
2023-02-13T00:01:09.221Z,17.10
2023-02-13T00:03:40.357Z,17.10
2023-02-13T00:06:14.280Z,16.53
2023-02-13T00:08:42.075Z,18.03
2023-02-13T00:11:13.204Z,17.40
2023-02-13T00:13:41.712Z,18.70
2023-02-13T00:16:10.348Z,15.63
2023-02-13T00:18:42.583Z,16.63
2023-02-13T00:21:17.662Z,15.87
2023-02-13T00:23:51.882Z,15.03
2023-02-13T00:26:22.078Z,15.90
2023-02-13T00:28:52.700Z,15.30
2023-02-13T00:31:22.317Z,18.30
2023-02-13T00:33:51.142Z,16.63
2023-02-13T00:36:22.331Z,17.70
2023-02-13T00:38:53.839Z,18.00
2023-02-13T00:41:22.667Z,18.53
2023-02-13T00:43:50.783Z,15.43
2023-02-13T00:46:19.637Z,19.13
2023-02-13T00:48:48.798Z,17.43
2023-02-13T00:51:19.841Z,17.07
2023-02-13T00:53:48.607Z,21.03
2023-02-13T00:56:16.579Z,20.93
2023-02-13T00:58:43.948Z,19.87
2023-02-13T01:01:11.334Z,17.93
2023-02-13T01:03:38.687Z,16.90
2023-02-13T01:06:06.924Z,19.33
2023-02-13T01:08:34.685Z,18.77
2023-02-13T01:11:02.802Z,16.07
2023-02-13T01:13:30.113Z,18.27
2023-02-13T01:15:57.426Z,22.23
2023-02-13T01:18:24.917Z,21.57
2023-02-13T01:21:00.502Z,20.60
2023-02-13T01:23:31.039Z,22.53
2023-02-13T01:25:58.363Z,22.00
2023-02-13T01:28:26.443Z,24.40
2023-02-13T01:30:54.371Z,27.57
2023-02-13T01:33:22.287Z,22.20
2023-02-13T01:35:49.664Z,22.03
2023-02-13T01:38:16.951Z,22.00
2023-02-13T01:40:47.735Z,23.37
2023-02-13T01:43:15.158Z,23.57
2023-02-13T01:45:44.038Z,25.40
2023-02-13T01:48:16.045Z,26.20
2023-02-13T01:50:48.233Z,24.77
2023-02-13T01:53:23.609Z,26.20
2023-02-13T01:55:55.277Z,27.13
2023-02-13T01:58:27.572Z,27.57
2023-02-13T02:00:56.012Z,26.87
2023-02-13T02:03:27.725Z,27.43
2023-02-13T02:05:57.688Z,24.80
2023-02-13T02:08:25.380Z,26.27
2023-02-13T02:10:53.285Z,24.80
2023-02-13T02:13:21.744Z,26.20
2023-02-13T02:15:52.707Z,25.67
2023-02-13T02:18:22.533Z,22.10
2023-02-13T02:21:24.549Z,23.33
2023-02-13T02:24:33.212Z,26.07
2023-02-13T02:27:26.228Z,25.27
2023-02-13T02:30:41.877Z,25.37
2023-02-13T02:33:19.732Z,22.30
2023-02-13T02:35:58.514Z,21.23
2023-02-13T02:38:41.929Z,21.23
2023-02-13T02:41:35.829Z,22.20
2023-02-13T02:44:14.973Z,23.80
2023-02-13T02:47:10.858Z,19.80
2023-02-13T02:50:01.246Z,21.00
2023-02-13T02:52:42.438Z,21.73
2023-02-13T02:55:17.301Z,22.57
2023-02-13T02:58:08.603Z,23.73
2023-02-13T03:00:59.692Z,20.60
2023-02-13T03:03:46.899Z,20.83
2023-02-13T03:06:22.885Z,22.17
2023-02-13T03:09:12.950Z,23.90
2023-02-13T03:11:59.439Z,21.93
2023-02-13T03:14:27.955Z,23.90
2023-02-13T03:17:15.920Z,22.73
2023-02-13T03:20:13.817Z,21.93
2023-02-13T03:22:55.031Z,21.30
2023-02-13T03:25:33.473Z,23.63
2023-02-13T03:28:26.624Z,20.10
2023-02-13T03:31:01.807Z,21.50
2023-02-13T03:33:43.981Z,30.20
2023-02-13T03:36:37.455Z,22.57
2023-02-13T03:39:11.341Z,21.70
2023-02-13T03:41:42.666Z,20.20
2023-02-13T03:44:16.143Z,23.37
2023-02-13T03:46:47.268Z,23.60
2023-02-13T03:49:38.255Z,20.67
2023-02-13T03:52:10.879Z,19.23
2023-02-13T03:55:02.644Z,20.17
2023-02-13T03:57:50.102Z,17.37
2023-02-13T04:00:19.540Z,17.93
2023-02-13T04:02:58.316Z,19.53
2023-02-13T04:05:29.454Z,15.27
2023-02-13T04:07:56.678Z,16.73
2023-02-13T04:10:28.865Z,17.33
2023-02-13T04:13:05.252Z,16.30
2023-02-13T04:15:38.871Z,16.60
2023-02-13T04:18:10.861Z,17.60
2023-02-13T04:20:39.263Z,18.20
2023-02-13T04:23:08.431Z,16.60
2023-02-13T04:25:38.132Z,16.27
2023-02-13T04:28:05.794Z,19.00
2023-02-13T04:30:33.683Z,15.60
2023-02-13T04:33:01.342Z,15.43
2023-02-13T04:35:28.711Z,15.93
2023-02-13T04:37:56.029Z,15.00
2023-02-13T04:40:23.431Z,16.20
2023-02-13T04:42:51.392Z,16.20
2023-02-13T04:45:18.654Z,15.30
2023-02-13T04:47:51.545Z,15.60
2023-02-13T04:50:19.549Z,14.40
2023-02-13T04:52:47.003Z,14.03
2023-02-13T04:55:14.981Z,14.30
2023-02-13T04:57:42.221Z,14.97
2023-02-13T05:00:11.571Z,13.93
2023-02-13T05:02:39.709Z,15.70
2023-02-13T05:05:07.250Z,20.47
2023-02-13T05:07:34.574Z,22.37
2023-02-13T05:10:01.877Z,18.10
2023-02-13T05:12:29.218Z,15.87
2023-02-13T05:14:56.640Z,15.97
2023-02-13T05:17:27.260Z,16.37
2023-02-13T05:19:55.711Z,16.30
2023-02-13T05:22:41.829Z,17.40
2023-02-13T05:25:09.486Z,17.33
2023-02-13T05:27:36.781Z,15.50
2023-02-13T05:30:04.297Z,17.20
2023-02-13T05:32:32.257Z,17.67
2023-02-13T05:34:59.500Z,16.87
2023-02-13T05:37:26.856Z,16.40
2023-02-13T05:39:54.192Z,17.90
2023-02-13T05:42:21.657Z,16.83
2023-02-13T05:44:49.223Z,18.17
2023-02-13T05:47:16.582Z,18.03
2023-02-13T05:49:44.704Z,17.00
2023-02-13T05:52:12.408Z,18.00
2023-02-13T05:54:39.687Z,18.03
2023-02-13T05:57:06.936Z,18.17
2023-02-13T05:59:34.225Z,17.40
2023-02-13T06:02:01.484Z,15.33
2023-02-13T06:04:29.064Z,18.00
2023-02-13T06:06:57.197Z,17.30
2023-02-13T06:09:24.678Z,15.67
2023-02-13T06:11:52.198Z,16.50
2023-02-13T06:14:19.564Z,19.50
2023-02-13T06:16:46.870Z,17.57
2023-02-13T06:19:14.255Z,19.90
2023-02-13T06:21:41.699Z,18.90
2023-02-13T06:24:09.778Z,21.10
2023-02-13T06:26:36.997Z,20.40
2023-02-13T06:29:05.826Z,19.43
2023-02-13T06:31:34.275Z,22.70
2023-02-13T06:34:01.523Z,20.37
2023-02-13T06:36:29.033Z,19.60
2023-02-13T06:38:56.345Z,20.60
2023-02-13T06:41:24.390Z,19.07
2023-02-13T06:43:51.820Z,22.10
2023-02-13T06:46:19.133Z,20.20
2023-02-13T06:48:46.405Z,18.87
2023-02-13T06:51:13.655Z,18.93
2023-02-13T06:53:40.828Z,21.23
2023-02-13T06:56:10.463Z,20.07
2023-02-13T06:58:39.357Z,19.90
2023-02-13T07:01:06.883Z,20.20
2023-02-13T07:03:34.205Z,20.27
2023-02-13T07:06:01.504Z,18.70
2023-02-13T07:08:28.793Z,36.33
2023-02-13T07:10:56.397Z,27.50
2023-02-13T07:13:23.905Z,19.40
2023-02-13T07:15:52.172Z,21.40
2023-02-13T07:18:19.414Z,22.30
2023-02-13T07:20:46.723Z,23.30
2023-02-13T07:23:13.974Z,23.70
2023-02-13T07:25:41.263Z,25.40
2023-02-13T07:28:09.340Z,24.50
2023-02-13T07:30:36.689Z,25.50
2023-02-13T07:33:05.290Z,23.50
2023-02-13T07:35:32.796Z,25.27
2023-02-13T07:38:00.147Z,25.07
2023-02-13T07:40:27.567Z,23.47
2023-02-13T07:42:54.878Z,23.73
2023-02-13T07:45:22.161Z,24.03
2023-02-13T07:47:49.468Z,22.43
2023-02-13T07:50:17.683Z,22.70
2023-02-13T07:52:44.963Z,20.43
2023-02-13T07:55:12.219Z,21.00
2023-02-13T07:57:39.533Z,20.50
2023-02-13T08:00:08.189Z,22.60
2023-02-13T08:02:35.476Z,20.97
2023-02-13T08:05:02.800Z,19.67
2023-02-13T08:07:31.138Z,19.17
2023-02-13T08:10:25.140Z,19.50
2023-02-13T08:12:53.068Z,18.20
2023-02-13T08:15:20.493Z,18.00
2023-02-13T08:17:47.804Z,19.77
2023-02-13T08:20:15.270Z,20.63
2023-02-13T08:22:43.248Z,17.60
2023-02-13T08:25:10.697Z,17.80
2023-02-13T08:27:38.481Z,17.17
2023-02-13T08:30:06.950Z,16.90
2023-02-13T08:32:42.067Z,16.10
2023-02-13T08:35:15.747Z,15.23
2023-02-13T08:37:44.782Z,15.90
2023-02-13T08:40:13.901Z,14.90
2023-02-13T08:42:41.309Z,15.70
2023-02-13T08:45:10.985Z,14.40
2023-02-13T08:47:39.052Z,16.33
2023-02-13T08:50:07.567Z,15.57
2023-02-13T08:52:35.088Z,16.00
2023-02-13T08:55:03.206Z,15.83
2023-02-13T08:57:30.950Z,15.50
2023-02-13T08:59:58.248Z,14.77
2023-02-13T09:02:25.551Z,14.20
2023-02-13T09:04:52.848Z,14.17
2023-02-13T09:07:20.120Z,12.83
2023-02-13T09:09:47.705Z,14.37
2023-02-13T09:12:15.678Z,11.40
2023-02-13T09:14:43.142Z,16.17
2023-02-13T09:17:10.473Z,12.60
2023-02-13T09:19:37.773Z,13.80
2023-02-13T09:22:05.046Z,13.10
2023-02-13T09:24:32.387Z,11.07
2023-02-13T09:26:59.871Z,12.47
2023-02-13T09:29:30.704Z,12.47
2023-02-13T09:31:58.095Z,13.40
2023-02-13T09:34:25.906Z,12.60
2023-02-13T09:36:53.436Z,13.10
2023-02-13T09:39:20.961Z,12.80
2023-02-13T09:41:50.204Z,14.63
2023-02-13T09:44:38.368Z,14.30
2023-02-13T09:47:13.865Z,12.17
2023-02-13T09:49:45.454Z,13.63
2023-02-13T09:52:12.814Z,13.53
2023-02-13T09:54:40.185Z,15.73
2023-02-13T09:57:16.500Z,14.77
2023-02-13T09:59:56.352Z,13.50
2023-02-13T10:02:45.305Z,11.67
2023-02-13T10:05:26.849Z,16.27
2023-02-13T10:08:01.329Z,16.53
2023-02-13T10:10:34.224Z,14.30
2023-02-13T10:13:13.999Z,14.60
2023-02-13T10:15:48.619Z,15.17
2023-02-13T10:18:19.517Z,15.20
2023-02-13T10:20:51.526Z,14.23
2023-02-13T10:23:24.383Z,14.40
2023-02-13T10:25:57.392Z,11.63
2023-02-13T10:28:32.251Z,11.60
2023-02-13T10:31:05.736Z,12.90
2023-02-13T10:33:38.816Z,16.93
2023-02-13T10:36:12.591Z,13.07
2023-02-13T10:38:44.464Z,11.00
2023-02-13T10:41:24.212Z,11.23
2023-02-13T10:44:01.864Z,10.33
2023-02-13T10:46:41.160Z,11.40
2023-02-13T10:49:37.586Z,13.07
2023-02-13T10:52:16.650Z,14.20
2023-02-13T10:55:03.031Z,13.77
2023-02-13T10:57:47.253Z,11.70
2023-02-13T11:00:22.977Z,12.90
2023-02-13T11:02:50.464Z,9.20
2023-02-13T11:05:22.326Z,9.00
2023-02-13T11:07:49.825Z,10.40
2023-02-13T11:10:20.006Z,10.03
2023-02-13T11:12:47.582Z,10.20
2023-02-13T11:15:26.806Z,11.53
2023-02-13T11:17:57.028Z,9.87
2023-02-13T11:20:34.968Z,10.00
2023-02-13T11:23:35.149Z,11.10
2023-02-13T11:26:06.962Z,10.60
2023-02-13T11:28:38.167Z,9.40
2023-02-13T11:31:18.842Z,11.10
2023-02-13T11:33:46.199Z,11.10
2023-02-13T11:36:17.483Z,9.40
2023-02-13T11:38:44.994Z,10.70
2023-02-13T11:41:14.086Z,14.10
2023-02-13T11:43:47.513Z,8.33
2023-02-13T11:46:19.787Z,10.53
2023-02-13T11:48:58.759Z,9.93
2023-02-13T11:51:44.555Z,10.37
2023-02-13T11:54:27.120Z,8.87
2023-02-13T11:57:05.504Z,10.33
2023-02-13T11:59:40.511Z,10.23
2023-02-13T12:02:17.233Z,9.53
2023-02-13T12:04:45.434Z,9.93
2023-02-13T12:07:20.202Z,10.97
2023-02-13T12:09:51.074Z,9.90
2023-02-13T12:12:25.466Z,10.90
2023-02-13T12:14:53.019Z,9.93
2023-02-13T12:17:31.253Z,10.33
2023-02-13T12:19:59.794Z,8.97
2023-02-13T12:22:46.443Z,9.40
2023-02-13T12:25:40.429Z,9.47
2023-02-13T12:28:13.226Z,8.57
2023-02-13T12:31:23.329Z,9.20
2023-02-13T12:34:25.893Z,9.67
2023-02-13T12:37:05.869Z,9.50
2023-02-13T12:39:35.180Z,9.70
2023-02-13T12:42:27.952Z,9.47
2023-02-13T12:45:15.650Z,8.47
2023-02-13T12:47:57.096Z,9.37
2023-02-13T12:50:43.845Z,9.20
2023-02-13T12:53:30.471Z,7.70
2023-02-13T12:56:42.831Z,7.93
2023-02-13T12:59:13.816Z,7.70
2023-02-13T13:02:17.005Z,8.13
2023-02-13T13:04:56.339Z,8.57
2023-02-13T13:07:47.394Z,10.27
2023-02-13T13:10:33.257Z,7.43
2023-02-13T13:13:10.966Z,8.03
2023-02-13T13:15:47.629Z,8.23
2023-02-13T13:18:27.315Z,8.00
2023-02-13T13:21:14.168Z,8.40
2023-02-13T13:23:49.080Z,7.90
2023-02-13T13:26:26.817Z,8.90
2023-02-13T13:28:58.423Z,7.53
2023-02-13T13:31:28.082Z,9.90
2023-02-13T13:34:00.336Z,11.13
2023-02-13T13:36:36.791Z,10.00
2023-02-13T13:39:13.296Z,11.10
2023-02-13T13:41:47.727Z,10.57
2023-02-13T13:44:41.877Z,10.53
2023-02-13T13:47:20.352Z,12.07
2023-02-13T13:49:53.572Z,11.23
2023-02-13T13:52:24.729Z,11.60
2023-02-13T13:54:53.101Z,10.13
2023-02-13T13:57:21.261Z,12.40
2023-02-13T14:00:16.354Z,10.00
2023-02-13T14:02:46.720Z,11.70
2023-02-13T14:05:27.629Z,13.97
2023-02-13T14:07:57.333Z,12.47
2023-02-13T14:11:06.410Z,12.00
2023-02-13T14:13:36.793Z,13.70
2023-02-13T14:16:09.577Z,16.27
2023-02-13T14:18:38.066Z,15.80
2023-02-13T14:21:06.030Z,23.83
2023-02-13T14:23:49.480Z,17.73
2023-02-13T14:26:37.370Z,14.13
2023-02-13T14:29:25.579Z,13.30
2023-02-13T14:32:02.286Z,13.70
2023-02-13T14:34:32.479Z,14.40
2023-02-13T14:37:29.395Z,10.70
2023-02-13T14:40:30.578Z,12.90
2023-02-13T14:43:01.160Z,25.10
2023-02-13T14:45:32.235Z,14.80
2023-02-13T14:48:06.477Z,13.40
2023-02-13T14:50:45.502Z,14.07
2023-02-13T14:53:21.167Z,13.43
2023-02-13T14:55:55.881Z,13.20
2023-02-13T14:58:28.313Z,11.83
2023-02-13T15:01:00.450Z,13.00
2023-02-13T15:03:35.931Z,13.50
2023-02-13T15:06:10.579Z,12.20
2023-02-13T15:08:45.293Z,12.33
2023-02-13T15:11:35.119Z,12.23
2023-02-13T15:14:20.361Z,11.60
2023-02-13T15:16:51.550Z,13.27
2023-02-13T15:19:22.067Z,13.23
2023-02-13T15:21:53.918Z,13.23
2023-02-13T15:24:25.372Z,15.40
2023-02-13T15:27:01.592Z,11.93
2023-02-13T15:29:40.929Z,12.80
2023-02-13T15:32:20.715Z,9.00
2023-02-13T15:34:50.617Z,12.23
2023-02-13T15:37:22.576Z,14.40
2023-02-13T15:39:49.963Z,11.00
2023-02-13T15:42:17.452Z,11.60
2023-02-13T15:44:48.007Z,14.10
2023-02-13T15:47:23.386Z,16.20
2023-02-13T15:49:51.906Z,13.33
2023-02-13T15:52:22.690Z,13.13
2023-02-13T15:54:51.224Z,12.77
2023-02-13T15:57:19.619Z,12.80
2023-02-13T15:59:47.611Z,11.33
2023-02-13T16:02:18.323Z,12.23
2023-02-13T16:04:47.661Z,13.83
2023-02-13T16:07:16.390Z,12.90
2023-02-13T16:09:44.583Z,14.73
2023-02-13T16:12:21.190Z,12.90
2023-02-13T16:14:54.059Z,13.37
2023-02-13T16:17:28.824Z,13.67
2023-02-13T16:20:00.210Z,11.90
2023-02-13T16:22:35.117Z,12.80
2023-02-13T16:25:17.506Z,14.33
2023-02-13T16:27:46.832Z,13.67
2023-02-13T16:30:25.932Z,13.10
2023-02-13T16:33:08.362Z,13.17
2023-02-13T16:35:39.292Z,12.80
2023-02-13T16:38:33.139Z,14.73
2023-02-13T16:41:01.904Z,13.90
2023-02-13T16:43:44.256Z,13.93
2023-02-13T16:46:22.432Z,14.13
2023-02-13T16:49:14.264Z,13.10
2023-02-13T16:51:45.131Z,14.27
2023-02-13T16:54:21.171Z,14.10
2023-02-13T16:56:51.238Z,14.50
2023-02-13T16:59:35.961Z,15.40
2023-02-13T17:02:22.489Z,14.67
2023-02-13T17:04:52.393Z,15.23
2023-02-13T17:07:22.492Z,17.30
2023-02-13T17:09:59.028Z,32.20
2023-02-13T17:12:28.172Z,19.87
2023-02-13T17:14:57.106Z,20.37
2023-02-13T17:17:27.004Z,16.30
2023-02-13T17:19:54.499Z,15.80
2023-02-13T17:22:29.589Z,15.70
2023-02-13T17:24:57.933Z,17.00
2023-02-13T17:27:25.548Z,16.73
2023-02-13T17:29:53.011Z,15.57
2023-02-13T17:32:22.998Z,14.30
2023-02-13T17:34:50.359Z,18.00
2023-02-13T17:37:20.119Z,17.17
2023-02-13T17:39:48.118Z,19.93
2023-02-13T17:42:23.327Z,14.50
2023-02-13T17:44:50.882Z,16.00
2023-02-13T17:47:19.320Z,16.87
2023-02-13T17:49:47.274Z,15.83
2023-02-13T17:52:17.874Z,17.37
2023-02-13T17:54:47.020Z,16.27
2023-02-13T17:57:15.806Z,16.67
2023-02-13T17:59:44.193Z,15.10
2023-02-13T18:02:14.029Z,16.50
2023-02-13T18:04:41.417Z,16.33
2023-02-13T18:07:10.209Z,16.00
2023-02-13T18:09:39.804Z,17.50
2023-02-13T18:12:08.021Z,18.27
2023-02-13T18:14:35.680Z,16.47
2023-02-13T18:17:03.957Z,18.67
2023-02-13T18:19:31.322Z,19.13
2023-02-13T18:21:58.788Z,20.20
2023-02-13T18:24:29.441Z,20.40
2023-02-13T18:26:56.944Z,19.33
2023-02-13T18:29:25.030Z,17.90
2023-02-13T18:31:52.712Z,21.37
2023-02-13T18:34:21.300Z,19.27
2023-02-13T18:36:49.129Z,18.50
2023-02-13T18:39:17.441Z,15.90
2023-02-13T18:41:45.478Z,15.87
2023-02-13T18:44:23.324Z,19.60
2023-02-13T18:46:55.746Z,17.50
2023-02-13T18:49:24.630Z,18.40
2023-02-13T18:51:52.717Z,16.20
2023-02-13T18:54:21.523Z,16.40
2023-02-13T18:56:49.379Z,32.43
2023-02-13T18:59:19.158Z,33.23
2023-02-13T19:01:46.823Z,25.63
2023-02-13T19:04:14.536Z,33.37
2023-02-13T19:06:44.034Z,24.50
2023-02-13T19:09:12.816Z,19.70
2023-02-13T19:11:43.873Z,22.47
2023-02-13T19:14:16.254Z,29.27
2023-02-13T19:16:43.817Z,38.97
2023-02-13T19:19:12.360Z,37.20
2023-02-13T19:21:40.043Z,22.07
2023-02-13T19:24:10.846Z,19.40
2023-02-13T19:26:38.500Z,15.10
2023-02-13T19:29:06.333Z,13.67
2023-02-13T19:31:34.105Z,14.10
2023-02-13T19:34:03.726Z,10.87
2023-02-13T19:36:31.438Z,10.63
2023-02-13T19:39:02.225Z,13.23
2023-02-13T19:41:32.355Z,16.90
2023-02-13T19:44:00.636Z,15.13
2023-02-13T19:46:31.018Z,13.27
2023-02-13T19:48:59.547Z,12.00
2023-02-13T19:51:29.541Z,13.20
2023-02-13T19:54:02.885Z,12.27
2023-02-13T19:56:32.999Z,13.97
2023-02-13T19:59:00.848Z,35.10
2023-02-13T20:01:29.898Z,18.73
2023-02-13T20:03:57.965Z,14.30
2023-02-13T20:06:31.166Z,14.80
2023-02-13T20:09:01.126Z,14.13
2023-02-13T20:11:29.457Z,13.27
2023-02-13T20:14:00.102Z,15.43
2023-02-13T20:16:32.327Z,15.73
2023-02-13T20:19:03.294Z,16.77
2023-02-13T20:21:33.113Z,15.60
2023-02-13T20:24:02.340Z,11.20
2023-02-13T20:26:30.577Z,12.27
2023-02-13T20:28:59.714Z,20.30
2023-02-13T20:31:29.227Z,16.47
2023-02-13T20:33:57.839Z,22.50
2023-02-13T20:36:34.848Z,21.20
2023-02-13T20:39:04.494Z,26.20
2023-02-13T20:41:33.991Z,16.37
2023-02-13T20:44:05.967Z,19.00
2023-02-13T20:46:35.457Z,19.77
2023-02-13T20:49:03.729Z,14.97
2023-02-13T20:51:31.684Z,16.40
2023-02-13T20:54:01.562Z,16.70
2023-02-13T20:56:29.859Z,16.50
2023-02-13T20:59:00.801Z,17.00
2023-02-13T21:01:31.873Z,16.27
2023-02-13T21:04:00.326Z,18.50
2023-02-13T21:06:30.547Z,18.40
2023-02-13T21:08:58.383Z,19.97
2023-02-13T21:11:27.768Z,19.13
2023-02-13T21:13:55.789Z,18.73
2023-02-13T21:16:28.763Z,19.43
2023-02-13T21:18:58.912Z,20.00
2023-02-13T21:21:28.421Z,22.90
2023-02-13T21:23:57.527Z,21.37
2023-02-13T21:26:25.752Z,18.93
2023-02-13T21:28:53.659Z,18.80
2023-02-13T21:31:25.040Z,16.70
2023-02-13T21:33:53.680Z,18.20
2023-02-13T21:36:21.499Z,18.90
2023-02-13T21:38:49.035Z,18.93
2023-02-13T21:41:18.384Z,18.60
2023-02-13T21:43:47.617Z,18.37
2023-02-13T21:46:17.206Z,18.40
2023-02-13T21:48:45.391Z,16.10
2023-02-13T21:51:16.225Z,16.23
2023-02-13T21:53:44.797Z,16.23
2023-02-13T21:56:15.395Z,15.83
2023-02-13T21:58:44.005Z,16.33
2023-02-13T22:01:20.565Z,20.60
2023-02-13T22:03:53.102Z,20.00
2023-02-13T22:06:21.176Z,21.70
2023-02-13T22:08:49.126Z,21.40
2023-02-13T22:11:17.575Z,20.10
2023-02-13T22:13:44.928Z,21.27
2023-02-13T22:16:14.118Z,18.30
2023-02-13T22:18:42.983Z,19.13
2023-02-13T22:21:12.844Z,17.87
2023-02-13T22:23:42.183Z,19.87
2023-02-13T22:26:19.638Z,17.70
2023-02-13T22:28:47.903Z,18.30
2023-02-13T22:31:16.548Z,17.10
2023-02-13T22:33:47.596Z,17.37
2023-02-13T22:36:21.590Z,17.67
2023-02-13T22:38:50.881Z,18.67
2023-02-13T22:41:20.995Z,18.60
2023-02-13T22:43:48.822Z,18.87
2023-02-13T22:46:18.671Z,21.83
2023-02-13T22:48:46.271Z,18.83
2023-02-13T22:51:16.210Z,19.03
2023-02-13T22:53:43.969Z,20.17
2023-02-13T22:56:12.949Z,19.40
2023-02-13T22:58:40.415Z,19.50
2023-02-13T23:01:12.060Z,24.63
2023-02-13T23:03:39.665Z,20.77
2023-02-13T23:06:08.700Z,22.40
2023-02-13T23:08:36.350Z,23.60
2023-02-13T23:11:24.382Z,20.57
2023-02-13T23:13:52.615Z,20.80
2023-02-13T23:16:20.104Z,20.30
2023-02-13T23:18:51.500Z,19.90
2023-02-13T23:21:18.999Z,20.00
2023-02-13T23:23:46.318Z,21.40
2023-02-13T23:26:14.050Z,18.97
2023-02-13T23:28:41.546Z,19.60
2023-02-13T23:31:09.813Z,21.97
2023-02-13T23:33:37.329Z,21.27
2023-02-13T23:36:05.219Z,20.60
2023-02-13T23:38:32.553Z,20.07
2023-02-13T23:41:07.213Z,20.80
2023-02-13T23:43:34.681Z,22.00
2023-02-13T23:46:03.592Z,21.60
2023-02-13T23:48:31.953Z,22.60
2023-02-13T23:50:59.612Z,23.17
2023-02-13T23:53:27.252Z,22.80
2023-02-13T23:55:54.562Z,23.87
2023-02-13T23:58:21.925Z,21.80
